createdAt,value
2022-09-12T00:01:17.302Z,7.03
2022-09-12T00:03:45.450Z,7.47
2022-09-12T00:06:24.787Z,8.13
2022-09-12T00:08:55.982Z,8.35
2022-09-12T00:13:50.962Z,7.78
2022-09-12T00:16:22.357Z,7.28
2022-09-12T00:18:50.467Z,7.45
2022-09-12T00:21:18.604Z,7.43
2022-09-12T00:23:46.611Z,8.05
2022-09-12T00:26:14.954Z,7.63
2022-09-12T00:28:42.606Z,9.55
2022-09-12T00:31:13.659Z,7.80
2022-09-12T00:33:42.853Z,8.50
2022-09-12T00:36:14.896Z,8.07
2022-09-12T00:38:43.639Z,7.95
2022-09-12T00:41:26.843Z,7.93
2022-09-12T00:44:10.895Z,7.85
2022-09-12T00:46:41.849Z,9.25
2022-09-12T00:49:54.416Z,9.73
2022-09-12T00:52:31.599Z,8.35
2022-09-12T00:55:10.778Z,10.20
2022-09-12T00:57:47.506Z,9.88
2022-09-12T01:00:17.421Z,9.73
2022-09-12T01:02:51.612Z,10.35
2022-09-12T01:05:19.919Z,10.13
2022-09-12T01:07:48.968Z,9.43
2022-09-12T01:10:17.282Z,9.57
2022-09-12T01:12:44.785Z,9.40
2022-09-12T01:15:12.427Z,9.27
2022-09-12T01:18:09.326Z,9.15
2022-09-12T01:21:00.172Z,9.55
2022-09-12T01:23:48.540Z,8.75
2022-09-12T01:26:53.184Z,8.85
2022-09-12T01:29:39.146Z,8.38
2022-09-12T01:32:26.830Z,8.40
2022-09-12T01:35:21.445Z,8.80
2022-09-12T01:37:49.523Z,9.75
2022-09-12T01:40:41.639Z,8.52
2022-09-12T01:43:18.376Z,8.05
2022-09-12T01:45:59.853Z,9.02
2022-09-12T01:48:33.231Z,9.27
2022-09-12T01:51:11.151Z,10.00
2022-09-12T01:53:44.420Z,9.30
2022-09-12T01:56:26.525Z,11.20
2022-09-12T01:59:05.252Z,9.77
2022-09-12T02:01:36.568Z,10.05
2022-09-12T02:04:30.022Z,9.95
2022-09-12T02:07:06.921Z,12.90
2022-09-12T02:09:46.441Z,9.73
2022-09-12T02:12:18.503Z,10.93
2022-09-12T02:14:52.568Z,10.00
2022-09-12T02:17:23.592Z,10.27
2022-09-12T02:22:29.360Z,10.27
2022-09-12T02:25:01.130Z,10.38
2022-09-12T02:27:37.823Z,9.13
2022-09-12T02:30:06.963Z,9.27
2022-09-12T02:32:43.950Z,10.02
2022-09-12T02:35:34.875Z,9.63
2022-09-12T02:38:13.180Z,9.32
2022-09-12T02:40:41.401Z,9.98
2022-09-12T02:43:09.178Z,9.27
2022-09-12T02:45:37.170Z,9.02
2022-09-12T02:48:21.312Z,9.35
2022-09-12T02:50:48.773Z,10.02
2022-09-12T02:53:18.105Z,9.93
2022-09-12T02:55:45.968Z,9.07
2022-09-12T02:58:24.687Z,10.15
2022-09-12T03:01:11.184Z,9.35
2022-09-12T03:03:52.992Z,10.10
2022-09-12T03:06:37.255Z,9.75
2022-09-12T03:09:19.226Z,9.77
2022-09-12T03:12:11.912Z,10.63
2022-09-12T03:15:17.524Z,8.10
2022-09-12T03:17:54.124Z,8.50
2022-09-12T03:20:45.543Z,7.93
2022-09-12T03:23:38.605Z,8.70
2022-09-12T03:26:13.580Z,8.77
2022-09-12T03:28:42.635Z,8.77
2022-09-12T03:31:15.742Z,8.52
2022-09-12T03:33:43.669Z,7.95
2022-09-12T03:36:37.172Z,7.80
2022-09-12T03:39:04.566Z,8.30
2022-09-12T03:41:31.916Z,7.55
2022-09-12T03:43:59.601Z,7.93
2022-09-12T03:46:27.027Z,8.10
2022-09-12T03:48:54.371Z,7.70
2022-09-12T03:51:22.040Z,7.57
2022-09-12T03:53:49.509Z,8.10
2022-09-12T03:56:18.535Z,7.82
2022-09-12T03:58:46.024Z,7.07
2022-09-12T04:01:16.417Z,7.18
2022-09-12T04:03:45.539Z,7.38
2022-09-12T04:06:15.330Z,7.00
2022-09-12T04:08:44.092Z,7.30
2022-09-12T04:11:14.340Z,7.05
2022-09-12T04:13:44.036Z,7.80
2022-09-12T04:16:12.897Z,7.28
2022-09-12T04:18:40.588Z,7.25
2022-09-12T04:21:13.441Z,6.70
2022-09-12T04:23:40.906Z,6.85
2022-09-12T04:26:08.727Z,6.60
2022-09-12T04:28:38.213Z,6.88
2022-09-12T04:31:12.302Z,7.20
2022-09-12T04:33:40.020Z,6.80
2022-09-12T04:36:09.988Z,7.07
2022-09-12T04:38:37.865Z,6.25
2022-09-12T04:41:23.887Z,6.95
2022-09-12T04:43:59.180Z,6.72
2022-09-12T04:46:27.339Z,7.40
2022-09-12T04:48:57.059Z,8.45
2022-09-12T04:51:31.052Z,6.88
2022-09-12T04:54:01.001Z,7.13
2022-09-12T04:56:29.676Z,6.75
2022-09-12T04:58:58.958Z,7.07
2022-09-12T05:01:28.383Z,7.40
2022-09-12T05:03:56.729Z,7.07
2022-09-12T05:06:26.894Z,7.05
2022-09-12T05:08:56.100Z,8.57
2022-09-12T05:11:33.024Z,7.25
2022-09-12T05:14:09.924Z,7.40
2022-09-12T05:16:37.731Z,6.70
2022-09-12T05:19:05.082Z,6.63
2022-09-12T05:21:32.544Z,6.28
2022-09-12T05:24:00.157Z,6.85
2022-09-12T05:26:28.026Z,6.90
2022-09-12T05:28:55.787Z,7.03
2022-09-12T05:31:25.423Z,7.30
2022-09-12T05:33:54.391Z,7.70
2022-09-12T05:36:27.456Z,6.93
2022-09-12T05:38:55.003Z,7.10
2022-09-12T05:41:25.204Z,6.63
2022-09-12T05:43:57.968Z,6.38
2022-09-12T05:46:27.554Z,7.40
2022-09-12T05:48:56.847Z,6.88
2022-09-12T05:51:26.664Z,5.63
2022-09-12T05:53:56.856Z,6.07
2022-09-12T05:56:29.088Z,6.35
2022-09-12T05:59:05.362Z,6.13
2022-09-12T06:01:34.571Z,6.30
2022-09-12T06:04:04.639Z,6.45
2022-09-12T06:06:35.262Z,6.07
2022-09-12T06:09:04.515Z,5.95
2022-09-12T06:11:34.208Z,6.30
2022-09-12T06:14:01.786Z,6.32
2022-09-12T06:16:31.419Z,5.88
2022-09-12T06:19:04.791Z,6.25
2022-09-12T06:21:32.452Z,5.57
2022-09-12T06:24:00.101Z,5.53
2022-09-12T06:26:29.280Z,5.68
2022-09-12T06:28:58.115Z,5.40
2022-09-12T06:31:31.513Z,5.50
2022-09-12T06:34:02.439Z,5.93
2022-09-12T06:39:01.301Z,5.25
2022-09-12T06:41:29.923Z,5.85
2022-09-12T06:43:58.163Z,5.63
2022-09-12T06:46:26.647Z,6.22
2022-09-12T06:48:56.381Z,5.30
2022-09-12T06:51:24.569Z,5.40
2022-09-12T06:53:54.627Z,5.45
2022-09-12T06:56:24.132Z,5.07
2022-09-12T06:58:52.556Z,5.63
2022-09-12T07:01:22.295Z,5.72
2022-09-12T07:03:55.841Z,5.32
2022-09-12T07:06:29.879Z,5.20
2022-09-12T07:09:01.812Z,6.00
2022-09-12T07:11:32.560Z,5.57
2022-09-12T07:14:02.249Z,5.05
2022-09-12T07:16:30.379Z,5.18
2022-09-12T07:19:00.410Z,5.35
2022-09-12T07:21:28.912Z,5.00
2022-09-12T07:23:58.063Z,4.53
2022-09-12T07:26:27.603Z,4.85
2022-09-12T07:29:07.842Z,4.13
2022-09-12T07:31:40.445Z,4.40
2022-09-12T07:34:07.960Z,4.95
2022-09-12T07:36:35.556Z,4.70
2022-09-12T07:39:03.505Z,4.03
2022-09-12T07:41:33.952Z,4.85
2022-09-12T07:44:03.442Z,4.18
2022-09-12T07:46:31.558Z,4.07
2022-09-12T07:49:00.754Z,4.68
2022-09-12T07:51:30.219Z,3.90
2022-09-12T07:53:57.799Z,4.30
2022-09-12T07:56:30.121Z,4.43
2022-09-12T07:58:58.903Z,4.40
2022-09-12T08:01:26.959Z,4.28
2022-09-12T08:03:57.191Z,3.95
2022-09-12T08:06:25.714Z,3.97
2022-09-12T08:08:55.613Z,4.25
2022-09-12T08:11:25.048Z,3.92
2022-09-12T08:13:55.777Z,4.05
2022-09-12T08:16:26.741Z,4.15
2022-09-12T08:18:54.491Z,3.75
2022-09-12T08:21:24.414Z,3.85
2022-09-12T08:23:54.127Z,3.83
2022-09-12T08:26:21.896Z,4.05
2022-09-12T08:28:49.631Z,3.90
2022-09-12T08:31:20.600Z,3.50
2022-09-12T08:33:48.217Z,3.55
2022-09-12T08:36:17.879Z,3.25
2022-09-12T08:38:46.739Z,3.60
2022-09-12T08:41:41.211Z,2.88
2022-09-12T08:44:17.629Z,3.28
2022-09-12T08:46:53.522Z,3.42
2022-09-12T08:49:29.721Z,2.78
2022-09-12T08:52:01.562Z,3.80
2022-09-12T08:54:31.303Z,2.97
2022-09-12T08:57:03.596Z,3.08
2022-09-12T08:59:44.801Z,2.88
2022-09-12T09:02:15.200Z,3.35
2022-09-12T09:05:03.323Z,3.00
2022-09-12T09:08:15.998Z,2.80
2022-09-12T09:11:01.391Z,3.08
2022-09-12T09:14:15.387Z,2.85
2022-09-12T09:16:45.153Z,2.88
2022-09-12T09:19:26.712Z,2.92
2022-09-12T09:21:58.955Z,2.80
2022-09-12T09:24:40.674Z,2.78
2022-09-12T09:27:40.344Z,2.70
2022-09-12T09:30:15.526Z,2.33
2022-09-12T09:32:47.692Z,2.97
2022-09-12T09:35:18.945Z,2.45
2022-09-12T09:37:58.804Z,2.70
2022-09-12T09:40:38.315Z,2.45
2022-09-12T09:43:23.087Z,2.70
2022-09-12T09:45:52.675Z,2.60
2022-09-12T09:48:33.757Z,2.75
2022-09-12T09:51:07.285Z,2.30
2022-09-12T09:53:46.948Z,2.53
2022-09-12T09:56:23.142Z,3.45
2022-09-12T09:58:50.681Z,3.08
2022-09-12T10:01:19.334Z,2.30
2022-09-12T10:03:55.397Z,2.65
2022-09-12T10:06:32.191Z,2.97
2022-09-12T10:09:13.214Z,2.25
2022-09-12T10:11:45.685Z,2.78
2022-09-12T10:14:38.472Z,2.10
2022-09-12T10:17:28.701Z,2.60
2022-09-12T10:20:19.765Z,3.15
2022-09-12T10:22:48.229Z,2.53
2022-09-12T10:25:18.634Z,2.58
2022-09-12T10:27:59.412Z,1.90
2022-09-12T10:33:07.355Z,2.15
2022-09-12T10:35:46.146Z,1.63
2022-09-12T10:38:28.536Z,2.00
2022-09-12T10:41:16.183Z,2.35
2022-09-12T10:43:43.761Z,1.52
2022-09-12T10:46:21.984Z,1.75
2022-09-12T10:48:51.539Z,1.27
2022-09-12T10:51:25.062Z,1.70
2022-09-12T10:53:56.588Z,1.70
2022-09-12T10:56:50.221Z,1.60
2022-09-12T10:59:41.332Z,1.58
2022-09-12T11:02:28.470Z,1.55
2022-09-12T11:05:10.828Z,1.92
2022-09-12T11:07:40.974Z,2.80
2022-09-12T11:10:27.054Z,1.50
2022-09-12T11:13:21.243Z,1.63
2022-09-12T11:16:20.000Z,1.80
2022-09-12T11:19:26.813Z,1.92
2022-09-12T11:21:57.296Z,2.15
2022-09-12T11:24:42.640Z,1.58
2022-09-12T11:27:10.001Z,2.22
2022-09-12T11:29:50.827Z,1.90
2022-09-12T11:32:41.445Z,2.22
2022-09-12T11:35:29.694Z,1.25
2022-09-12T11:38:00.526Z,2.05
2022-09-12T11:41:06.872Z,1.73
2022-09-12T11:43:43.136Z,1.40
2022-09-12T11:46:25.233Z,1.67
2022-09-12T11:49:05.246Z,1.80
2022-09-12T11:51:54.053Z,1.47
2022-09-12T11:55:03.823Z,1.55
2022-09-12T11:57:39.934Z,2.40
2022-09-12T12:00:40.083Z,1.27
2022-09-12T12:03:16.061Z,1.92
2022-09-12T12:06:04.198Z,1.95
2022-09-12T12:08:37.573Z,1.70
2022-09-12T12:11:08.107Z,2.05
2022-09-12T12:13:40.292Z,1.70
2022-09-12T12:16:11.751Z,1.50
2022-09-12T12:18:40.737Z,1.50
2022-09-12T12:21:29.319Z,1.58
2022-09-12T12:24:04.891Z,1.52
2022-09-12T12:26:41.276Z,1.70
2022-09-12T12:29:19.494Z,1.80
2022-09-12T12:32:04.804Z,1.38
2022-09-12T12:34:42.236Z,1.45
2022-09-12T12:37:22.090Z,1.65
2022-09-12T12:39:50.422Z,2.07
2022-09-12T12:42:35.581Z,2.45
2022-09-12T12:45:08.659Z,2.63
2022-09-12T12:47:39.367Z,1.60
2022-09-12T12:50:28.106Z,1.67
2022-09-12T12:53:28.032Z,1.48
2022-09-12T12:55:57.113Z,1.73
2022-09-12T12:58:40.708Z,1.45
2022-09-12T13:01:18.761Z,1.40
2022-09-12T13:04:01.328Z,1.90
2022-09-12T13:06:40.406Z,1.50
2022-09-12T13:09:19.749Z,1.48
2022-09-12T13:11:54.088Z,1.35
2022-09-12T13:14:42.452Z,1.42
2022-09-12T13:17:16.336Z,1.45
2022-09-12T13:19:44.401Z,1.58
2022-09-12T13:22:11.758Z,1.48
2022-09-12T13:24:48.957Z,1.50
2022-09-12T13:27:25.435Z,1.85
2022-09-12T13:30:13.548Z,1.45
2022-09-12T13:32:42.434Z,1.60
2022-09-12T13:35:25.771Z,1.42
2022-09-12T13:38:05.721Z,1.40
2022-09-12T13:41:09.940Z,1.30
2022-09-12T13:43:43.535Z,1.30
2022-09-12T13:46:17.680Z,1.65
2022-09-12T13:48:45.572Z,1.40
2022-09-12T13:51:26.040Z,1.48
2022-09-12T13:53:56.349Z,1.48
2022-09-12T13:56:23.755Z,0.98
2022-09-12T13:58:56.948Z,1.10
2022-09-12T14:01:39.773Z,1.27
2022-09-12T14:04:40.185Z,1.48
2022-09-12T14:07:22.235Z,6.10
2022-09-12T14:09:58.671Z,3.60
2022-09-12T14:12:39.142Z,2.13
2022-09-12T14:15:09.582Z,2.08
2022-09-12T14:20:14.045Z,1.43
2022-09-12T14:22:41.741Z,1.85
2022-09-12T14:25:17.076Z,2.35
2022-09-12T14:27:50.711Z,1.20
2022-09-12T14:30:36.431Z,1.30
2022-09-12T14:33:09.844Z,1.38
2022-09-12T14:35:42.728Z,1.60
2022-09-12T14:38:16.743Z,1.67
2022-09-12T14:40:49.652Z,1.10
2022-09-12T14:43:30.453Z,0.98
2022-09-12T14:46:05.608Z,1.20
2022-09-12T14:48:37.056Z,1.27
2022-09-12T14:51:05.330Z,1.20
2022-09-12T14:53:36.189Z,2.28
2022-09-12T14:56:07.291Z,1.30
2022-09-12T14:58:35.446Z,1.90
2022-09-12T15:01:05.902Z,2.38
2022-09-12T15:03:37.390Z,1.48
2022-09-12T15:06:08.087Z,1.40
2022-09-12T15:08:35.678Z,1.30
2022-09-12T15:11:06.974Z,1.20
2022-09-12T15:13:40.299Z,1.30
2022-09-12T15:16:10.952Z,0.90
2022-09-12T15:21:08.240Z,1.50
2022-09-12T15:23:45.748Z,1.50
2022-09-12T15:26:18.619Z,1.35
2022-09-12T15:28:46.280Z,1.35
2022-09-12T15:31:27.484Z,1.00
2022-09-12T15:33:56.318Z,1.20
2022-09-12T15:36:24.832Z,1.23
2022-09-12T15:38:53.159Z,1.23
2022-09-12T15:41:23.506Z,1.58
2022-09-12T15:43:50.988Z,2.60
2022-09-12T15:46:19.382Z,2.83
2022-09-12T15:48:46.811Z,1.85
2022-09-12T15:51:16.899Z,5.10
2022-09-12T15:53:45.367Z,2.40
2022-09-12T15:56:13.972Z,1.98
2022-09-12T15:58:57.132Z,3.58
2022-09-12T16:01:27.064Z,2.53
2022-09-12T16:03:54.590Z,1.40
2022-09-12T16:06:22.545Z,1.90
2022-09-12T16:08:49.914Z,1.45
2022-09-12T16:11:24.697Z,1.48
2022-09-12T16:13:53.959Z,2.00
2022-09-12T16:16:21.453Z,2.05
2022-09-12T16:18:48.933Z,1.73
2022-09-12T16:21:16.583Z,1.48
2022-09-12T16:23:45.134Z,1.85
2022-09-12T16:26:12.671Z,1.60
2022-09-12T16:28:40.323Z,1.60
2022-09-12T16:31:09.215Z,1.65
2022-09-12T16:33:38.477Z,1.48
2022-09-12T16:36:09.313Z,1.73
2022-09-12T16:38:44.103Z,1.48
2022-09-12T16:41:12.770Z,1.38
2022-09-12T16:43:40.824Z,1.42
2022-09-12T16:46:09.833Z,1.70
2022-09-12T16:48:38.045Z,1.33
2022-09-12T16:51:06.938Z,1.50
2022-09-12T16:53:37.386Z,1.60
2022-09-12T16:56:06.017Z,1.77
2022-09-12T16:58:38.512Z,1.40
2022-09-12T17:01:11.087Z,1.42
2022-09-12T17:03:38.877Z,2.17
2022-09-12T17:06:18.382Z,2.60
2022-09-12T17:08:48.610Z,1.80
2022-09-12T17:11:19.570Z,1.42
2022-09-12T17:16:40.442Z,1.52
2022-09-12T17:19:08.678Z,2.00
2022-09-12T17:21:36.490Z,1.70
2022-09-12T17:24:04.478Z,1.60
2022-09-12T17:26:31.840Z,1.88
2022-09-12T17:28:59.320Z,1.80
2022-09-12T17:31:27.728Z,1.80
2022-09-12T17:33:59.105Z,2.55
2022-09-12T17:36:27.516Z,2.05
2022-09-12T17:38:55.054Z,1.75
2022-09-12T17:41:25.587Z,1.80
2022-09-12T17:43:57.727Z,1.88
2022-09-12T17:46:29.804Z,2.05
2022-09-12T17:48:58.569Z,2.17
2022-09-12T17:51:28.934Z,2.38
2022-09-12T17:54:05.577Z,2.30
2022-09-12T17:56:34.341Z,1.80
2022-09-12T17:59:02.054Z,1.80
2022-09-12T18:01:48.293Z,2.70
2022-09-12T18:04:16.539Z,2.17
2022-09-12T18:06:48.799Z,2.55
2022-09-12T18:09:19.622Z,2.28
2022-09-12T18:14:16.007Z,2.13
2022-09-12T18:16:45.703Z,1.90
2022-09-12T18:19:13.737Z,5.15
2022-09-12T18:21:41.159Z,2.72
2022-09-12T18:24:09.647Z,2.40
2022-09-12T18:26:37.431Z,2.10
2022-09-12T18:29:05.864Z,2.60
2022-09-12T18:31:33.248Z,2.95
2022-09-12T18:34:01.086Z,4.80
2022-09-12T18:36:30.681Z,2.65
2022-09-12T18:38:59.305Z,2.65
2022-09-12T18:41:28.894Z,2.60
2022-09-12T18:44:00.547Z,3.83
2022-09-12T18:46:29.354Z,3.20
2022-09-12T18:48:58.005Z,7.82
2022-09-12T18:51:31.465Z,5.53
2022-09-12T18:54:01.412Z,3.90
2022-09-12T18:56:35.175Z,4.80
2022-09-12T18:59:05.360Z,3.35
2022-09-12T19:01:35.566Z,3.15
2022-09-12T19:04:07.739Z,3.05
2022-09-12T19:06:46.347Z,2.22
2022-09-12T19:09:16.408Z,1.80
2022-09-12T19:11:49.558Z,2.00
2022-09-12T19:14:19.643Z,2.55
2022-09-12T19:16:47.106Z,2.80
2022-09-12T19:19:14.548Z,2.28
2022-09-12T19:21:42.546Z,2.60
2022-09-12T19:24:10.904Z,2.40
2022-09-12T19:26:39.551Z,2.03
2022-09-12T19:29:07.952Z,2.05
2022-09-12T19:31:35.609Z,2.15
2022-09-12T19:34:05.381Z,1.90
2022-09-12T19:36:45.002Z,1.88
2022-09-12T19:39:13.523Z,2.50
2022-09-12T19:41:40.982Z,2.97
2022-09-12T19:44:08.387Z,2.40
2022-09-12T19:46:35.815Z,2.13
2022-09-12T19:49:03.772Z,1.92
2022-09-12T19:51:31.458Z,1.95
2022-09-12T19:53:58.831Z,2.42
2022-09-12T19:56:26.277Z,2.70
2022-09-12T19:58:56.622Z,2.90
2022-09-12T20:03:53.873Z,3.47
2022-09-12T20:06:22.598Z,2.90
2022-09-12T20:08:50.097Z,2.33
2022-09-12T20:11:19.520Z,2.42
2022-09-12T20:13:47.517Z,2.60
2022-09-12T20:16:26.903Z,2.15
2022-09-12T20:19:03.210Z,2.20
2022-09-12T20:21:32.665Z,2.40
2022-09-12T20:24:02.553Z,2.70
2022-09-12T20:26:30.712Z,3.17
2022-09-12T20:28:58.237Z,2.65
2022-09-12T20:31:26.213Z,3.33
2022-09-12T20:33:55.045Z,3.08
2022-09-12T20:36:23.272Z,3.22
2022-09-12T20:38:56.971Z,2.78
2022-09-12T20:41:25.925Z,2.88
2022-09-12T20:43:54.957Z,2.60
2022-09-12T20:46:23.592Z,3.95
2022-09-12T20:48:52.295Z,6.05
2022-09-12T20:51:23.046Z,7.93
2022-09-12T20:56:22.196Z,4.57
2022-09-12T20:58:50.629Z,3.40
2022-09-12T21:01:18.471Z,3.33
2022-09-12T21:03:47.445Z,3.30
2022-09-12T21:06:18.875Z,3.25
2022-09-12T21:08:48.520Z,2.72
2022-09-12T21:11:17.204Z,3.33
2022-09-12T21:13:44.769Z,2.75
2022-09-12T21:16:14.999Z,3.15
2022-09-12T21:18:42.935Z,4.28
2022-09-12T21:21:12.284Z,3.65
2022-09-12T21:23:40.387Z,3.60
2022-09-12T21:26:08.646Z,3.17
2022-09-12T21:28:36.612Z,3.42
2022-09-12T21:31:04.390Z,3.15
2022-09-12T21:33:31.889Z,3.35
2022-09-12T21:36:03.829Z,3.50
2022-09-12T21:38:32.379Z,4.00
2022-09-12T21:41:10.587Z,3.67
2022-09-12T21:43:38.885Z,3.70
2022-09-12T21:46:09.717Z,3.92
2022-09-12T21:48:37.619Z,4.28
2022-09-12T21:51:05.695Z,3.83
2022-09-12T21:53:33.174Z,4.10
2022-09-12T21:56:02.561Z,4.78
2022-09-12T21:58:30.007Z,3.72
2022-09-12T22:00:57.493Z,3.33
2022-09-12T22:03:26.103Z,3.38
2022-09-12T22:06:01.628Z,3.25
2022-09-12T22:08:31.002Z,3.20
2022-09-12T22:11:03.409Z,3.58
2022-09-12T22:13:32.245Z,3.85
2022-09-12T22:16:02.824Z,3.95
2022-09-12T22:18:33.972Z,3.40
2022-09-12T22:21:12.455Z,3.85
2022-09-12T22:23:58.330Z,4.10
2022-09-12T22:26:27.015Z,3.30
2022-09-12T22:28:54.632Z,3.70
2022-09-12T22:31:22.692Z,2.88
2022-09-12T22:33:51.479Z,3.60
2022-09-12T22:36:18.874Z,3.08
2022-09-12T22:38:46.412Z,2.58
2022-09-12T22:41:13.798Z,2.80
2022-09-12T22:43:41.393Z,2.95
2022-09-12T22:46:12.390Z,3.30
2022-09-12T22:48:40.733Z,2.80
2022-09-12T22:51:09.002Z,2.72
2022-09-12T22:53:37.066Z,2.95
2022-09-12T22:56:05.189Z,2.85
2022-09-12T22:58:34.089Z,2.67
2022-09-12T23:01:01.476Z,3.13
2022-09-12T23:03:28.946Z,2.78
2022-09-12T23:05:56.387Z,2.85
2022-09-12T23:08:24.117Z,2.72
2022-09-12T23:10:51.784Z,4.30
2022-09-12T23:13:19.160Z,3.25
2022-09-12T23:15:46.564Z,3.25
2022-09-12T23:18:13.957Z,3.63
2022-09-12T23:20:41.356Z,3.45
2022-09-12T23:23:09.673Z,3.70
2022-09-12T23:25:37.273Z,3.88
2022-09-12T23:28:04.619Z,16.13
2022-09-12T23:30:32.052Z,4.97
2022-09-12T23:32:59.472Z,4.50
2022-09-12T23:35:26.827Z,3.00
2022-09-12T23:37:54.175Z,2.90
2022-09-12T23:40:21.585Z,3.20
2022-09-12T23:42:49.088Z,3.75
2022-09-12T23:45:16.550Z,3.28
2022-09-12T23:47:43.919Z,3.58
2022-09-12T23:50:11.263Z,3.63
2022-09-12T23:52:40.205Z,3.78
2022-09-12T23:55:08.756Z,3.60
2022-09-12T23:57:35.990Z,4.53
